<?xml version="1.0" encoding="UTF-8" ?>
<gpx version="1.1" xmlns:xsi="http://www.w3.org/2001/XMLSchema-instance" 
    xmlns="http://www.topografix.com/GPX/1/1" 
    xsi:schemaLocation="http://www.topografix.com/GPX/1/1 http://www.topografix.com/GPX/1/1/gpx.xsd" 
    creator="Openrunner - https://www.openrunner.com" >	<trk>
						<name>ISCyclo mai à vélo 25km gravel-16517897</name>
						<trkseg>
					<trkpt lat="43.501120" lon="4.994820">
						<ele>33</ele>
						<time>2025-04-28T16:28:32Z</time>
					</trkpt>
					<trkpt lat="43.501170" lon="4.993490">
						<ele>31</ele>
						<time>2025-04-28T16:28:49Z</time>
					</trkpt>
					<trkpt lat="43.502200" lon="4.993510">
						<ele>33</ele>
						<time>2025-04-28T16:29:08Z</time>
					</trkpt>
					<trkpt lat="43.502520" lon="4.993400">
						<ele>34</ele>
						<time>2025-04-28T16:29:13Z</time>
					</trkpt>
					<trkpt lat="43.502940" lon="4.993470">
						<ele>38</ele>
						<time>2025-04-28T16:29:21Z</time>
					</trkpt>
					<trkpt lat="43.503220" lon="4.993700">
						<ele>40</ele>
						<time>2025-04-28T16:29:27Z</time>
					</trkpt>
					<trkpt lat="43.503330" lon="4.993940">
						<ele>42</ele>
						<time>2025-04-28T16:29:30Z</time>
					</trkpt>
					<trkpt lat="43.503910" lon="4.994960">
						<ele>51</ele>
						<time>2025-04-28T16:29:47Z</time>
					</trkpt>
					<trkpt lat="43.504350" lon="4.995750">
						<ele>52</ele>
						<time>2025-04-28T16:30:00Z</time>
					</trkpt>
					<trkpt lat="43.504800" lon="4.996940">
						<ele>48</ele>
						<time>2025-04-28T16:30:17Z</time>
					</trkpt>
					<trkpt lat="43.505020" lon="4.997580">
						<ele>46</ele>
						<time>2025-04-28T16:30:26Z</time>
					</trkpt>
					<trkpt lat="43.505330" lon="4.997970">
						<ele>43</ele>
						<time>2025-04-28T16:30:34Z</time>
					</trkpt>
					<trkpt lat="43.505820" lon="4.997930">
						<ele>46</ele>
						<time>2025-04-28T16:30:43Z</time>
					</trkpt>
					<trkpt lat="43.506630" lon="4.997630">
						<ele>44</ele>
						<time>2025-04-28T16:30:58Z</time>
					</trkpt>
					<trkpt lat="43.507150" lon="4.997610">
						<ele>39</ele>
						<time>2025-04-28T16:31:07Z</time>
					</trkpt>
					<trkpt lat="43.507590" lon="4.997810">
						<ele>37</ele>
						<time>2025-04-28T16:31:15Z</time>
					</trkpt>
					<trkpt lat="43.508210" lon="4.998350">
						<ele>31</ele>
						<time>2025-04-28T16:31:28Z</time>
					</trkpt>
					<trkpt lat="43.508520" lon="4.998610">
						<ele>24</ele>
						<time>2025-04-28T16:31:35Z</time>
					</trkpt>
					<trkpt lat="43.509240" lon="4.998760">
						<ele>22</ele>
						<time>2025-04-28T16:31:47Z</time>
					</trkpt>
					<trkpt lat="43.509720" lon="4.999160">
						<ele>21</ele>
						<time>2025-04-28T16:31:57Z</time>
					</trkpt>
					<trkpt lat="43.510180" lon="4.999410">
						<ele>19</ele>
						<time>2025-04-28T16:32:06Z</time>
					</trkpt>
					<trkpt lat="43.510630" lon="4.999650">
						<ele>17</ele>
						<time>2025-04-28T16:32:15Z</time>
					</trkpt>
					<trkpt lat="43.511420" lon="5.000200">
						<ele>15</ele>
						<time>2025-04-28T16:32:31Z</time>
					</trkpt>
					<trkpt lat="43.511890" lon="5.000600">
						<ele>13</ele>
						<time>2025-04-28T16:32:40Z</time>
					</trkpt>
					<trkpt lat="43.512370" lon="5.001130">
						<ele>10</ele>
						<time>2025-04-28T16:32:51Z</time>
					</trkpt>
					<trkpt lat="43.512640" lon="5.001450">
						<ele>7</ele>
						<time>2025-04-28T16:32:58Z</time>
					</trkpt>
					<trkpt lat="43.512860" lon="5.001510">
						<ele>9</ele>
						<time>2025-04-28T16:33:02Z</time>
					</trkpt>
					<trkpt lat="43.513600" lon="5.001980">
						<ele>12</ele>
						<time>2025-04-28T16:33:16Z</time>
					</trkpt>
					<trkpt lat="43.513890" lon="5.002310">
						<ele>14</ele>
						<time>2025-04-28T16:33:23Z</time>
					</trkpt>
					<trkpt lat="43.514240" lon="5.002350">
						<ele>17</ele>
						<time>2025-04-28T16:33:29Z</time>
					</trkpt>
					<trkpt lat="43.515250" lon="5.003650">
						<ele>17</ele>
						<time>2025-04-28T16:33:54Z</time>
					</trkpt>
					<trkpt lat="43.515780" lon="5.004420">
						<ele>19</ele>
						<time>2025-04-28T16:34:07Z</time>
					</trkpt>
					<trkpt lat="43.516500" lon="5.004880">
						<ele>16</ele>
						<time>2025-04-28T16:34:22Z</time>
					</trkpt>
					<trkpt lat="43.516880" lon="5.005170">
						<ele>12</ele>
						<time>2025-04-28T16:34:29Z</time>
					</trkpt>
					<trkpt lat="43.517300" lon="5.005270">
						<ele>10</ele>
						<time>2025-04-28T16:34:37Z</time>
					</trkpt>
					<trkpt lat="43.517810" lon="5.005390">
						<ele>9</ele>
						<time>2025-04-28T16:34:46Z</time>
					</trkpt>
					<trkpt lat="43.518340" lon="5.006140">
						<ele>3</ele>
						<time>2025-04-28T16:35:00Z</time>
					</trkpt>
					<trkpt lat="43.519010" lon="5.006990">
						<ele>0</ele>
						<time>2025-04-28T16:35:16Z</time>
					</trkpt>
					<trkpt lat="43.519220" lon="5.007310">
						<ele>1</ele>
						<time>2025-04-28T16:35:21Z</time>
					</trkpt>
					<trkpt lat="43.519450" lon="5.007430">
						<ele>3</ele>
						<time>2025-04-28T16:35:26Z</time>
					</trkpt>
					<trkpt lat="43.519940" lon="5.007460">
						<ele>7</ele>
						<time>2025-04-28T16:35:34Z</time>
					</trkpt>
					<trkpt lat="43.520510" lon="5.007360">
						<ele>11</ele>
						<time>2025-04-28T16:35:45Z</time>
					</trkpt>
					<trkpt lat="43.521170" lon="5.007520">
						<ele>8</ele>
						<time>2025-04-28T16:35:57Z</time>
					</trkpt>
					<trkpt lat="43.522120" lon="5.007320">
						<ele>10</ele>
						<time>2025-04-28T16:36:14Z</time>
					</trkpt>
					<trkpt lat="43.522550" lon="5.007060">
						<ele>14</ele>
						<time>2025-04-28T16:36:22Z</time>
					</trkpt>
					<trkpt lat="43.522940" lon="5.006580">
						<ele>20</ele>
						<time>2025-04-28T16:36:31Z</time>
					</trkpt>
					<trkpt lat="43.523180" lon="5.006280">
						<ele>20</ele>
						<time>2025-04-28T16:36:37Z</time>
					</trkpt>
					<trkpt lat="43.523370" lon="5.006180">
						<ele>19</ele>
						<time>2025-04-28T16:36:41Z</time>
					</trkpt>
					<trkpt lat="43.523520" lon="5.006330">
						<ele>20</ele>
						<time>2025-04-28T16:36:44Z</time>
					</trkpt>
					<trkpt lat="43.523550" lon="5.006640">
						<ele>21</ele>
						<time>2025-04-28T16:36:48Z</time>
					</trkpt>
					<trkpt lat="43.523570" lon="5.007030">
						<ele>19</ele>
						<time>2025-04-28T16:36:53Z</time>
					</trkpt>
					<trkpt lat="43.523990" lon="5.007720">
						<ele>21</ele>
						<time>2025-04-28T16:37:05Z</time>
					</trkpt>
					<trkpt lat="43.524270" lon="5.008120">
						<ele>22</ele>
						<time>2025-04-28T16:37:12Z</time>
					</trkpt>
					<trkpt lat="43.524550" lon="5.008230">
						<ele>24</ele>
						<time>2025-04-28T16:37:17Z</time>
					</trkpt>
					<trkpt lat="43.525520" lon="5.008320">
						<ele>28</ele>
						<time>2025-04-28T16:37:34Z</time>
					</trkpt>
					<trkpt lat="43.526030" lon="5.008540">
						<ele>32</ele>
						<time>2025-04-28T16:37:44Z</time>
					</trkpt>
					<trkpt lat="43.526200" lon="5.008860">
						<ele>34</ele>
						<time>2025-04-28T16:37:49Z</time>
					</trkpt>
					<trkpt lat="43.526170" lon="5.009620">
						<ele>37</ele>
						<time>2025-04-28T16:37:59Z</time>
					</trkpt>
					<trkpt lat="43.526820" lon="5.010380">
						<ele>45</ele>
						<time>2025-04-28T16:38:14Z</time>
					</trkpt>
					<trkpt lat="43.526800" lon="5.010080">
						<ele>44</ele>
						<time>2025-04-28T16:38:18Z</time>
					</trkpt>
					<trkpt lat="43.526360" lon="5.009460">
						<ele>38</ele>
						<time>2025-04-28T16:38:29Z</time>
					</trkpt>
					<trkpt lat="43.526430" lon="5.008670">
						<ele>36</ele>
						<time>2025-04-28T16:38:39Z</time>
					</trkpt>
					<trkpt lat="43.526470" lon="5.007790">
						<ele>38</ele>
						<time>2025-04-28T16:38:51Z</time>
					</trkpt>
					<trkpt lat="43.526360" lon="5.007230">
						<ele>38</ele>
						<time>2025-04-28T16:38:58Z</time>
					</trkpt>
					<trkpt lat="43.526390" lon="5.006940">
						<ele>39</ele>
						<time>2025-04-28T16:39:02Z</time>
					</trkpt>
					<trkpt lat="43.526950" lon="5.006520">
						<ele>38</ele>
						<time>2025-04-28T16:39:13Z</time>
					</trkpt>
					<trkpt lat="43.527230" lon="5.006310">
						<ele>38</ele>
						<time>2025-04-28T16:39:19Z</time>
					</trkpt>
					<trkpt lat="43.527360" lon="5.005990">
						<ele>37</ele>
						<time>2025-04-28T16:39:24Z</time>
					</trkpt>
					<trkpt lat="43.527650" lon="5.006110">
						<ele>37</ele>
						<time>2025-04-28T16:39:29Z</time>
					</trkpt>
					<trkpt lat="43.527900" lon="5.005820">
						<ele>38</ele>
						<time>2025-04-28T16:39:35Z</time>
					</trkpt>
					<trkpt lat="43.528140" lon="5.005000">
						<ele>38</ele>
						<time>2025-04-28T16:39:46Z</time>
					</trkpt>
					<trkpt lat="43.528200" lon="5.004450">
						<ele>37</ele>
						<time>2025-04-28T16:39:53Z</time>
					</trkpt>
					<trkpt lat="43.528780" lon="5.003980">
						<ele>39</ele>
						<time>2025-04-28T16:40:05Z</time>
					</trkpt>
					<trkpt lat="43.529100" lon="5.004010">
						<ele>41</ele>
						<time>2025-04-28T16:40:11Z</time>
					</trkpt>
					<trkpt lat="43.529320" lon="5.003800">
						<ele>40</ele>
						<time>2025-04-28T16:40:16Z</time>
					</trkpt>
					<trkpt lat="43.529260" lon="5.002980">
						<ele>37</ele>
						<time>2025-04-28T16:40:27Z</time>
					</trkpt>
					<trkpt lat="43.529120" lon="5.001820">
						<ele>31</ele>
						<time>2025-04-28T16:40:42Z</time>
					</trkpt>
					<trkpt lat="43.528860" lon="5.001410">
						<ele>29</ele>
						<time>2025-04-28T16:40:49Z</time>
					</trkpt>
					<trkpt lat="43.528460" lon="4.999960">
						<ele>30</ele>
						<time>2025-04-28T16:41:09Z</time>
					</trkpt>
					<trkpt lat="43.528220" lon="4.999070">
						<ele>29</ele>
						<time>2025-04-28T16:41:21Z</time>
					</trkpt>
					<trkpt lat="43.528860" lon="4.999580">
						<ele>31</ele>
						<time>2025-04-28T16:41:34Z</time>
					</trkpt>
					<trkpt lat="43.529370" lon="5.000010">
						<ele>30</ele>
						<time>2025-04-28T16:41:45Z</time>
					</trkpt>
					<trkpt lat="43.530180" lon="5.000150">
						<ele>28</ele>
						<time>2025-04-28T16:41:59Z</time>
					</trkpt>
					<trkpt lat="43.530390" lon="5.000110">
						<ele>28</ele>
						<time>2025-04-28T16:42:03Z</time>
					</trkpt>
					<trkpt lat="43.530850" lon="4.999800">
						<ele>26</ele>
						<time>2025-04-28T16:42:12Z</time>
					</trkpt>
					<trkpt lat="43.531750" lon="4.999320">
						<ele>27</ele>
						<time>2025-04-28T16:42:29Z</time>
					</trkpt>
					<trkpt lat="43.532470" lon="4.998820">
						<ele>29</ele>
						<time>2025-04-28T16:42:44Z</time>
					</trkpt>
					<trkpt lat="43.533000" lon="4.998450">
						<ele>30</ele>
						<time>2025-04-28T16:42:54Z</time>
					</trkpt>
					<trkpt lat="43.533530" lon="4.998210">
						<ele>33</ele>
						<time>2025-04-28T16:43:04Z</time>
					</trkpt>
					<trkpt lat="43.534790" lon="4.998020">
						<ele>37</ele>
						<time>2025-04-28T16:43:27Z</time>
					</trkpt>
					<trkpt lat="43.535440" lon="4.997920">
						<ele>39</ele>
						<time>2025-04-28T16:43:38Z</time>
					</trkpt>
					<trkpt lat="43.537810" lon="4.997800">
						<ele>50</ele>
						<time>2025-04-28T16:44:21Z</time>
					</trkpt>
					<trkpt lat="43.538650" lon="4.997650">
						<ele>49</ele>
						<time>2025-04-28T16:44:36Z</time>
					</trkpt>
					<trkpt lat="43.539450" lon="4.997670">
						<ele>53</ele>
						<time>2025-04-28T16:44:50Z</time>
					</trkpt>
					<trkpt lat="43.540570" lon="4.997280">
						<ele>56</ele>
						<time>2025-04-28T16:45:10Z</time>
					</trkpt>
					<trkpt lat="43.541140" lon="4.997150">
						<ele>58</ele>
						<time>2025-04-28T16:45:21Z</time>
					</trkpt>
					<trkpt lat="43.542410" lon="4.996450">
						<ele>59</ele>
						<time>2025-04-28T16:45:45Z</time>
					</trkpt>
					<trkpt lat="43.543090" lon="4.996360">
						<ele>61</ele>
						<time>2025-04-28T16:45:57Z</time>
					</trkpt>
					<trkpt lat="43.543560" lon="4.996590">
						<ele>64</ele>
						<time>2025-04-28T16:46:06Z</time>
					</trkpt>
					<trkpt lat="43.544250" lon="4.996500">
						<ele>64</ele>
						<time>2025-04-28T16:46:18Z</time>
					</trkpt>
					<trkpt lat="43.545270" lon="4.996770">
						<ele>65</ele>
						<time>2025-04-28T16:46:37Z</time>
					</trkpt>
					<trkpt lat="43.546910" lon="4.997380">
						<ele>65</ele>
						<time>2025-04-28T16:47:07Z</time>
					</trkpt>
					<trkpt lat="43.548350" lon="4.997730">
						<ele>62</ele>
						<time>2025-04-28T16:47:33Z</time>
					</trkpt>
					<trkpt lat="43.550020" lon="4.997560">
						<ele>56</ele>
						<time>2025-04-28T16:48:03Z</time>
					</trkpt>
					<trkpt lat="43.551120" lon="4.997350">
						<ele>59</ele>
						<time>2025-04-28T16:48:23Z</time>
					</trkpt>
					<trkpt lat="43.551420" lon="4.997280">
						<ele>61</ele>
						<time>2025-04-28T16:48:28Z</time>
					</trkpt>
					<trkpt lat="43.551610" lon="4.997710">
						<ele>62</ele>
						<time>2025-04-28T16:48:35Z</time>
					</trkpt>
					<trkpt lat="43.551460" lon="4.998410">
						<ele>59</ele>
						<time>2025-04-28T16:48:44Z</time>
					</trkpt>
					<trkpt lat="43.551420" lon="4.999050">
						<ele>57</ele>
						<time>2025-04-28T16:48:52Z</time>
					</trkpt>
					<trkpt lat="43.552470" lon="4.999880">
						<ele>58</ele>
						<time>2025-04-28T16:49:14Z</time>
					</trkpt>
					<trkpt lat="43.553710" lon="5.001250">
						<ele>60</ele>
						<time>2025-04-28T16:49:42Z</time>
					</trkpt>
					<trkpt lat="43.554060" lon="5.001470">
						<ele>62</ele>
						<time>2025-04-28T16:49:49Z</time>
					</trkpt>
					<trkpt lat="43.554450" lon="5.001550">
						<ele>63</ele>
						<time>2025-04-28T16:49:56Z</time>
					</trkpt>
					<trkpt lat="43.555510" lon="5.002210">
						<ele>66</ele>
						<time>2025-04-28T16:50:17Z</time>
					</trkpt>
					<trkpt lat="43.557170" lon="5.003010">
						<ele>67</ele>
						<time>2025-04-28T16:50:48Z</time>
					</trkpt>
					<trkpt lat="43.557920" lon="5.003580">
						<ele>70</ele>
						<time>2025-04-28T16:51:03Z</time>
					</trkpt>
					<trkpt lat="43.558350" lon="5.003800">
						<ele>70</ele>
						<time>2025-04-28T16:51:11Z</time>
					</trkpt>
					<trkpt lat="43.558430" lon="5.004660">
						<ele>73</ele>
						<time>2025-04-28T16:51:23Z</time>
					</trkpt>
					<trkpt lat="43.558780" lon="5.006020">
						<ele>73</ele>
						<time>2025-04-28T16:51:41Z</time>
					</trkpt>
					<trkpt lat="43.558920" lon="5.006820">
						<ele>72</ele>
						<time>2025-04-28T16:51:52Z</time>
					</trkpt>
					<trkpt lat="43.558960" lon="5.007520">
						<ele>74</ele>
						<time>2025-04-28T16:52:01Z</time>
					</trkpt>
					<trkpt lat="43.559000" lon="5.008090">
						<ele>75</ele>
						<time>2025-04-28T16:52:08Z</time>
					</trkpt>
					<trkpt lat="43.559450" lon="5.009180">
						<ele>70</ele>
						<time>2025-04-28T16:52:24Z</time>
					</trkpt>
					<trkpt lat="43.559680" lon="5.009510">
						<ele>69</ele>
						<time>2025-04-28T16:52:30Z</time>
					</trkpt>
					<trkpt lat="43.559890" lon="5.009610">
						<ele>69</ele>
						<time>2025-04-28T16:52:34Z</time>
					</trkpt>
					<trkpt lat="43.560350" lon="5.010240">
						<ele>67</ele>
						<time>2025-04-28T16:52:46Z</time>
					</trkpt>
					<trkpt lat="43.560590" lon="5.010480">
						<ele>66</ele>
						<time>2025-04-28T16:52:51Z</time>
					</trkpt>
					<trkpt lat="43.560790" lon="5.010830">
						<ele>63</ele>
						<time>2025-04-28T16:52:57Z</time>
					</trkpt>
					<trkpt lat="43.561100" lon="5.011090">
						<ele>62</ele>
						<time>2025-04-28T16:53:03Z</time>
					</trkpt>
					<trkpt lat="43.561180" lon="5.011430">
						<ele>59</ele>
						<time>2025-04-28T16:53:08Z</time>
					</trkpt>
					<trkpt lat="43.561580" lon="5.011880">
						<ele>56</ele>
						<time>2025-04-28T16:53:17Z</time>
					</trkpt>
					<trkpt lat="43.562240" lon="5.012220">
						<ele>53</ele>
						<time>2025-04-28T16:53:30Z</time>
					</trkpt>
					<trkpt lat="43.563160" lon="5.012760">
						<ele>47</ele>
						<time>2025-04-28T16:53:47Z</time>
					</trkpt>
					<trkpt lat="43.564200" lon="5.012980">
						<ele>46</ele>
						<time>2025-04-28T16:54:06Z</time>
					</trkpt>
					<trkpt lat="43.565000" lon="5.013370">
						<ele>42</ele>
						<time>2025-04-28T16:54:21Z</time>
					</trkpt>
					<trkpt lat="43.565500" lon="5.013170">
						<ele>41</ele>
						<time>2025-04-28T16:54:30Z</time>
					</trkpt>
					<trkpt lat="43.566000" lon="5.012780">
						<ele>42</ele>
						<time>2025-04-28T16:54:41Z</time>
					</trkpt>
					<trkpt lat="43.567390" lon="5.012270">
						<ele>45</ele>
						<time>2025-04-28T16:55:06Z</time>
					</trkpt>
					<trkpt lat="43.568110" lon="5.012680">
						<ele>41</ele>
						<time>2025-04-28T16:55:20Z</time>
					</trkpt>
					<trkpt lat="43.569300" lon="5.013570">
						<ele>34</ele>
						<time>2025-04-28T16:55:44Z</time>
					</trkpt>
					<trkpt lat="43.570110" lon="5.014250">
						<ele>34</ele>
						<time>2025-04-28T16:56:01Z</time>
					</trkpt>
					<trkpt lat="43.570260" lon="5.014470">
						<ele>32</ele>
						<time>2025-04-28T16:56:05Z</time>
					</trkpt>
					<trkpt lat="43.570070" lon="5.015190">
						<ele>29</ele>
						<time>2025-04-28T16:56:15Z</time>
					</trkpt>
					<trkpt lat="43.569860" lon="5.015600">
						<ele>26</ele>
						<time>2025-04-28T16:56:21Z</time>
					</trkpt>
					<trkpt lat="43.570180" lon="5.015770">
						<ele>26</ele>
						<time>2025-04-28T16:56:27Z</time>
					</trkpt>
					<trkpt lat="43.570610" lon="5.014680">
						<ele>31</ele>
						<time>2025-04-28T16:56:43Z</time>
					</trkpt>
					<trkpt lat="43.571190" lon="5.013640">
						<ele>35</ele>
						<time>2025-04-28T16:57:00Z</time>
					</trkpt>
					<trkpt lat="43.571610" lon="5.013180">
						<ele>39</ele>
						<time>2025-04-28T16:57:10Z</time>
					</trkpt>
					<trkpt lat="43.572100" lon="5.012920">
						<ele>41</ele>
						<time>2025-04-28T16:57:19Z</time>
					</trkpt>
					<trkpt lat="43.572870" lon="5.012690">
						<ele>44</ele>
						<time>2025-04-28T16:57:33Z</time>
					</trkpt>
					<trkpt lat="43.574350" lon="5.012860">
						<ele>46</ele>
						<time>2025-04-28T16:58:00Z</time>
					</trkpt>
					<trkpt lat="43.574890" lon="5.012830">
						<ele>46</ele>
						<time>2025-04-28T16:58:09Z</time>
					</trkpt>
					<trkpt lat="43.575250" lon="5.012690">
						<ele>46</ele>
						<time>2025-04-28T16:58:16Z</time>
					</trkpt>
					<trkpt lat="43.575860" lon="5.012140">
						<ele>47</ele>
						<time>2025-04-28T16:58:29Z</time>
					</trkpt>
					<trkpt lat="43.576490" lon="5.011740">
						<ele>47</ele>
						<time>2025-04-28T16:58:41Z</time>
					</trkpt>
					<trkpt lat="43.577010" lon="5.011520">
						<ele>47</ele>
						<time>2025-04-28T16:58:51Z</time>
					</trkpt>
					<trkpt lat="43.577470" lon="5.011140">
						<ele>49</ele>
						<time>2025-04-28T16:59:00Z</time>
					</trkpt>
					<trkpt lat="43.577670" lon="5.010920">
						<ele>50</ele>
						<time>2025-04-28T16:59:05Z</time>
					</trkpt>
					<trkpt lat="43.577910" lon="5.010590">
						<ele>52</ele>
						<time>2025-04-28T16:59:11Z</time>
					</trkpt>
					<trkpt lat="43.578160" lon="5.010010">
						<ele>56</ele>
						<time>2025-04-28T16:59:20Z</time>
					</trkpt>
					<trkpt lat="43.578300" lon="5.009640">
						<ele>56</ele>
						<time>2025-04-28T16:59:25Z</time>
					</trkpt>
					<trkpt lat="43.578400" lon="5.008960">
						<ele>56</ele>
						<time>2025-04-28T16:59:34Z</time>
					</trkpt>
					<trkpt lat="43.578160" lon="5.008680">
						<ele>56</ele>
						<time>2025-04-28T16:59:40Z</time>
					</trkpt>
					<trkpt lat="43.578220" lon="5.008430">
						<ele>55</ele>
						<time>2025-04-28T16:59:43Z</time>
					</trkpt>
					<trkpt lat="43.578130" lon="5.008040">
						<ele>56</ele>
						<time>2025-04-28T16:59:48Z</time>
					</trkpt>
					<trkpt lat="43.577980" lon="5.007830">
						<ele>57</ele>
						<time>2025-04-28T16:59:52Z</time>
					</trkpt>
					<trkpt lat="43.577870" lon="5.007340">
						<ele>57</ele>
						<time>2025-04-28T16:59:59Z</time>
					</trkpt>
					<trkpt lat="43.577860" lon="5.007310">
						<ele>57</ele>
						<time>2025-04-28T16:59:59Z</time>
					</trkpt>
					<trkpt lat="43.577120" lon="5.007560">
						<ele>60</ele>
						<time>2025-04-28T17:00:13Z</time>
					</trkpt>
					<trkpt lat="43.576670" lon="5.007580">
						<ele>61</ele>
						<time>2025-04-28T17:00:21Z</time>
					</trkpt>
					<trkpt lat="43.575450" lon="5.007520">
						<ele>63</ele>
						<time>2025-04-28T17:00:42Z</time>
					</trkpt>
					<trkpt lat="43.575190" lon="5.007470">
						<ele>64</ele>
						<time>2025-04-28T17:00:47Z</time>
					</trkpt>
					<trkpt lat="43.574800" lon="5.007320">
						<ele>64</ele>
						<time>2025-04-28T17:00:54Z</time>
					</trkpt>
					<trkpt lat="43.574580" lon="5.007190">
						<ele>65</ele>
						<time>2025-04-28T17:00:59Z</time>
					</trkpt>
					<trkpt lat="43.574330" lon="5.007000">
						<ele>65</ele>
						<time>2025-04-28T17:01:04Z</time>
					</trkpt>
					<trkpt lat="43.574040" lon="5.006690">
						<ele>66</ele>
						<time>2025-04-28T17:01:10Z</time>
					</trkpt>
					<trkpt lat="43.573680" lon="5.006240">
						<ele>67</ele>
						<time>2025-04-28T17:01:19Z</time>
					</trkpt>
					<trkpt lat="43.573520" lon="5.005950">
						<ele>68</ele>
						<time>2025-04-28T17:01:23Z</time>
					</trkpt>
					<trkpt lat="43.573470" lon="5.005790">
						<ele>68</ele>
						<time>2025-04-28T17:01:26Z</time>
					</trkpt>
					<trkpt lat="43.573100" lon="5.004960">
						<ele>66</ele>
						<time>2025-04-28T17:01:38Z</time>
					</trkpt>
					<trkpt lat="43.573080" lon="5.004640">
						<ele>66</ele>
						<time>2025-04-28T17:01:42Z</time>
					</trkpt>
					<trkpt lat="43.573310" lon="5.004140">
						<ele>66</ele>
						<time>2025-04-28T17:01:50Z</time>
					</trkpt>
					<trkpt lat="43.575340" lon="4.999720">
						<ele>54</ele>
						<time>2025-04-28T17:02:58Z</time>
					</trkpt>
					<trkpt lat="43.575350" lon="4.999750">
						<ele>54</ele>
						<time>2025-04-28T17:02:58Z</time>
					</trkpt>
					<trkpt lat="43.575500" lon="4.999670">
						<ele>55</ele>
						<time>2025-04-28T17:03:01Z</time>
					</trkpt>
					<trkpt lat="43.575540" lon="4.999670">
						<ele>55</ele>
						<time>2025-04-28T17:03:02Z</time>
					</trkpt>
					<trkpt lat="43.575620" lon="4.999640">
						<ele>55</ele>
						<time>2025-04-28T17:03:03Z</time>
					</trkpt>
					<trkpt lat="43.575670" lon="4.999550">
						<ele>54</ele>
						<time>2025-04-28T17:03:04Z</time>
					</trkpt>
					<trkpt lat="43.575680" lon="4.999450">
						<ele>54</ele>
						<time>2025-04-28T17:03:06Z</time>
					</trkpt>
					<trkpt lat="43.575640" lon="4.999350">
						<ele>54</ele>
						<time>2025-04-28T17:03:07Z</time>
					</trkpt>
					<trkpt lat="43.575670" lon="4.999140">
						<ele>54</ele>
						<time>2025-04-28T17:03:10Z</time>
					</trkpt>
					<trkpt lat="43.576480" lon="4.997350">
						<ele>50</ele>
						<time>2025-04-28T17:03:37Z</time>
					</trkpt>
					<trkpt lat="43.576580" lon="4.997260">
						<ele>50</ele>
						<time>2025-04-28T17:03:39Z</time>
					</trkpt>
					<trkpt lat="43.576620" lon="4.997250">
						<ele>50</ele>
						<time>2025-04-28T17:03:40Z</time>
					</trkpt>
					<trkpt lat="43.576920" lon="4.997460">
						<ele>49</ele>
						<time>2025-04-28T17:03:46Z</time>
					</trkpt>
					<trkpt lat="43.577650" lon="4.998210">
						<ele>51</ele>
						<time>2025-04-28T17:04:02Z</time>
					</trkpt>
					<trkpt lat="43.577640" lon="4.998200">
						<ele>51</ele>
						<time>2025-04-28T17:04:02Z</time>
					</trkpt>
					<trkpt lat="43.577970" lon="4.996820">
						<ele>49</ele>
						<time>2025-04-28T17:04:21Z</time>
					</trkpt>
					<trkpt lat="43.578190" lon="4.996120">
						<ele>49</ele>
						<time>2025-04-28T17:04:31Z</time>
					</trkpt>
					<trkpt lat="43.578350" lon="4.995660">
						<ele>49</ele>
						<time>2025-04-28T17:04:38Z</time>
					</trkpt>
					<trkpt lat="43.578620" lon="4.994950">
						<ele>48</ele>
						<time>2025-04-28T17:04:48Z</time>
					</trkpt>
					<trkpt lat="43.578710" lon="4.994770">
						<ele>48</ele>
						<time>2025-04-28T17:04:51Z</time>
					</trkpt>
					<trkpt lat="43.579060" lon="4.994130">
						<ele>47</ele>
						<time>2025-04-28T17:05:01Z</time>
					</trkpt>
					<trkpt lat="43.579130" lon="4.993890">
						<ele>48</ele>
						<time>2025-04-28T17:05:04Z</time>
					</trkpt>
					<trkpt lat="43.579280" lon="4.992750">
						<ele>50</ele>
						<time>2025-04-28T17:05:19Z</time>
					</trkpt>
					<trkpt lat="43.578820" lon="4.991180">
						<ele>48</ele>
						<time>2025-04-28T17:05:41Z</time>
					</trkpt>
					<trkpt lat="43.577770" lon="4.989980">
						<ele>48</ele>
						<time>2025-04-28T17:06:05Z</time>
					</trkpt>
					<trkpt lat="43.575340" lon="4.987260">
						<ele>45</ele>
						<time>2025-04-28T17:07:01Z</time>
					</trkpt>
					<trkpt lat="43.573750" lon="4.985430">
						<ele>46</ele>
						<time>2025-04-28T17:07:38Z</time>
					</trkpt>
					<trkpt lat="43.571850" lon="4.983120">
						<ele>44</ele>
						<time>2025-04-28T17:08:23Z</time>
					</trkpt>
					<trkpt lat="43.571420" lon="4.982710">
						<ele>44</ele>
						<time>2025-04-28T17:08:32Z</time>
					</trkpt>
					<trkpt lat="43.570900" lon="4.982600">
						<ele>44</ele>
						<time>2025-04-28T17:08:42Z</time>
					</trkpt>
					<trkpt lat="43.570750" lon="4.982130">
						<ele>44</ele>
						<time>2025-04-28T17:08:48Z</time>
					</trkpt>
					<trkpt lat="43.569970" lon="4.981140">
						<ele>45</ele>
						<time>2025-04-28T17:09:07Z</time>
					</trkpt>
					<trkpt lat="43.569740" lon="4.981060">
						<ele>44</ele>
						<time>2025-04-28T17:09:11Z</time>
					</trkpt>
					<trkpt lat="43.569020" lon="4.981330">
						<ele>43</ele>
						<time>2025-04-28T17:09:25Z</time>
					</trkpt>
					<trkpt lat="43.568180" lon="4.983200">
						<ele>44</ele>
						<time>2025-04-28T17:09:53Z</time>
					</trkpt>
					<trkpt lat="43.567060" lon="4.986010">
						<ele>47</ele>
						<time>2025-04-28T17:10:34Z</time>
					</trkpt>
					<trkpt lat="43.565330" lon="4.984850">
						<ele>45</ele>
						<time>2025-04-28T17:11:09Z</time>
					</trkpt>
					<trkpt lat="43.564150" lon="4.984250">
						<ele>45</ele>
						<time>2025-04-28T17:11:31Z</time>
					</trkpt>
					<trkpt lat="43.563340" lon="4.983740">
						<ele>45</ele>
						<time>2025-04-28T17:11:47Z</time>
					</trkpt>
					<trkpt lat="43.562980" lon="4.983240">
						<ele>44</ele>
						<time>2025-04-28T17:11:56Z</time>
					</trkpt>
					<trkpt lat="43.562100" lon="4.981890">
						<ele>45</ele>
						<time>2025-04-28T17:12:19Z</time>
					</trkpt>
					<trkpt lat="43.558700" lon="4.975970">
						<ele>42</ele>
						<time>2025-04-28T17:13:57Z</time>
					</trkpt>
					<trkpt lat="43.553680" lon="4.974920">
						<ele>40</ele>
						<time>2025-04-28T17:15:27Z</time>
					</trkpt>
					<trkpt lat="43.549580" lon="4.973090">
						<ele>39</ele>
						<time>2025-04-28T17:16:44Z</time>
					</trkpt>
					<trkpt lat="43.547060" lon="4.972670">
						<ele>38</ele>
						<time>2025-04-28T17:17:29Z</time>
					</trkpt>
					<trkpt lat="43.542930" lon="4.973070">
						<ele>36</ele>
						<time>2025-04-28T17:18:42Z</time>
					</trkpt>
					<trkpt lat="43.536880" lon="4.974700">
						<ele>35</ele>
						<time>2025-04-28T17:20:32Z</time>
					</trkpt>
					<trkpt lat="43.531660" lon="4.974150">
						<ele>29</ele>
						<time>2025-04-28T17:22:05Z</time>
					</trkpt>
					<trkpt lat="43.531490" lon="4.974260">
						<ele>29</ele>
						<time>2025-04-28T17:22:09Z</time>
					</trkpt>
					<trkpt lat="43.530940" lon="4.974460">
						<ele>27</ele>
						<time>2025-04-28T17:22:19Z</time>
					</trkpt>
					<trkpt lat="43.530330" lon="4.974720">
						<ele>28</ele>
						<time>2025-04-28T17:22:30Z</time>
					</trkpt>
					<trkpt lat="43.530170" lon="4.974770">
						<ele>29</ele>
						<time>2025-04-28T17:22:33Z</time>
					</trkpt>
					<trkpt lat="43.530060" lon="4.974750">
						<ele>29</ele>
						<time>2025-04-28T17:22:35Z</time>
					</trkpt>
					<trkpt lat="43.530000" lon="4.974810">
						<ele>29</ele>
						<time>2025-04-28T17:22:36Z</time>
					</trkpt>
					<trkpt lat="43.530000" lon="4.974850">
						<ele>29</ele>
						<time>2025-04-28T17:22:37Z</time>
					</trkpt>
					<trkpt lat="43.529850" lon="4.975030">
						<ele>29</ele>
						<time>2025-04-28T17:22:40Z</time>
					</trkpt>
					<trkpt lat="43.528670" lon="4.975770">
						<ele>29</ele>
						<time>2025-04-28T17:23:03Z</time>
					</trkpt>
					<trkpt lat="43.528080" lon="4.976120">
						<ele>27</ele>
						<time>2025-04-28T17:23:15Z</time>
					</trkpt>
					<trkpt lat="43.527820" lon="4.976130">
						<ele>28</ele>
						<time>2025-04-28T17:23:20Z</time>
					</trkpt>
					<trkpt lat="43.527710" lon="4.976080">
						<ele>29</ele>
						<time>2025-04-28T17:23:22Z</time>
					</trkpt>
					<trkpt lat="43.527680" lon="4.976010">
						<ele>29</ele>
						<time>2025-04-28T17:23:23Z</time>
					</trkpt>
					<trkpt lat="43.527630" lon="4.975950">
						<ele>29</ele>
						<time>2025-04-28T17:23:24Z</time>
					</trkpt>
					<trkpt lat="43.527570" lon="4.975920">
						<ele>30</ele>
						<time>2025-04-28T17:23:25Z</time>
					</trkpt>
					<trkpt lat="43.527510" lon="4.975930">
						<ele>30</ele>
						<time>2025-04-28T17:23:26Z</time>
					</trkpt>
					<trkpt lat="43.527450" lon="4.975960">
						<ele>30</ele>
						<time>2025-04-28T17:23:27Z</time>
					</trkpt>
					<trkpt lat="43.527410" lon="4.976020">
						<ele>29</ele>
						<time>2025-04-28T17:23:28Z</time>
					</trkpt>
					<trkpt lat="43.527380" lon="4.976100">
						<ele>29</ele>
						<time>2025-04-28T17:23:29Z</time>
					</trkpt>
					<trkpt lat="43.527380" lon="4.976240">
						<ele>29</ele>
						<time>2025-04-28T17:23:31Z</time>
					</trkpt>
					<trkpt lat="43.527290" lon="4.976550">
						<ele>28</ele>
						<time>2025-04-28T17:23:35Z</time>
					</trkpt>
					<trkpt lat="43.527350" lon="4.976490">
						<ele>28</ele>
						<time>2025-04-28T17:23:37Z</time>
					</trkpt>
					<trkpt lat="43.527480" lon="4.976380">
						<ele>29</ele>
						<time>2025-04-28T17:23:40Z</time>
					</trkpt>
					<trkpt lat="43.527560" lon="4.976400">
						<ele>28</ele>
						<time>2025-04-28T17:23:41Z</time>
					</trkpt>
					<trkpt lat="43.527610" lon="4.976380">
						<ele>28</ele>
						<time>2025-04-28T17:23:42Z</time>
					</trkpt>
					<trkpt lat="43.527670" lon="4.976330">
						<ele>28</ele>
						<time>2025-04-28T17:23:43Z</time>
					</trkpt>
					<trkpt lat="43.527710" lon="4.976220">
						<ele>28</ele>
						<time>2025-04-28T17:23:45Z</time>
					</trkpt>
					<trkpt lat="43.527710" lon="4.976080">
						<ele>29</ele>
						<time>2025-04-28T17:23:47Z</time>
					</trkpt>
					<trkpt lat="43.527680" lon="4.976010">
						<ele>29</ele>
						<time>2025-04-28T17:23:48Z</time>
					</trkpt>
					<trkpt lat="43.527630" lon="4.975950">
						<ele>29</ele>
						<time>2025-04-28T17:23:49Z</time>
					</trkpt>
					<trkpt lat="43.527570" lon="4.975920">
						<ele>30</ele>
						<time>2025-04-28T17:23:50Z</time>
					</trkpt>
					<trkpt lat="43.527510" lon="4.975930">
						<ele>30</ele>
						<time>2025-04-28T17:23:51Z</time>
					</trkpt>
					<trkpt lat="43.527450" lon="4.975960">
						<ele>30</ele>
						<time>2025-04-28T17:23:52Z</time>
					</trkpt>
					<trkpt lat="43.527410" lon="4.976020">
						<ele>29</ele>
						<time>2025-04-28T17:23:53Z</time>
					</trkpt>
					<trkpt lat="43.527380" lon="4.976100">
						<ele>29</ele>
						<time>2025-04-28T17:23:54Z</time>
					</trkpt>
					<trkpt lat="43.527380" lon="4.976240">
						<ele>29</ele>
						<time>2025-04-28T17:23:56Z</time>
					</trkpt>
					<trkpt lat="43.527290" lon="4.976550">
						<ele>28</ele>
						<time>2025-04-28T17:24:00Z</time>
					</trkpt>
					<trkpt lat="43.527210" lon="4.976640">
						<ele>28</ele>
						<time>2025-04-28T17:24:02Z</time>
					</trkpt>
					<trkpt lat="43.527080" lon="4.976730">
						<ele>28</ele>
						<time>2025-04-28T17:24:05Z</time>
					</trkpt>
					<trkpt lat="43.525610" lon="4.977610">
						<ele>27</ele>
						<time>2025-04-28T17:24:33Z</time>
					</trkpt>
					<trkpt lat="43.524980" lon="4.977960">
						<ele>26</ele>
						<time>2025-04-28T17:24:45Z</time>
					</trkpt>
					<trkpt lat="43.523260" lon="4.978820">
						<ele>27</ele>
						<time>2025-04-28T17:25:18Z</time>
					</trkpt>
					<trkpt lat="43.522730" lon="4.979110">
						<ele>28</ele>
						<time>2025-04-28T17:25:28Z</time>
					</trkpt>
					<trkpt lat="43.521560" lon="4.979890">
						<ele>27</ele>
						<time>2025-04-28T17:25:51Z</time>
					</trkpt>
					<trkpt lat="43.521420" lon="4.979950">
						<ele>27</ele>
						<time>2025-04-28T17:25:54Z</time>
					</trkpt>
					<trkpt lat="43.521380" lon="4.979970">
						<ele>27</ele>
						<time>2025-04-28T17:25:55Z</time>
					</trkpt>
					<trkpt lat="43.521360" lon="4.980020">
						<ele>27</ele>
						<time>2025-04-28T17:25:55Z</time>
					</trkpt>
					<trkpt lat="43.520960" lon="4.980270">
						<ele>27</ele>
						<time>2025-04-28T17:26:03Z</time>
					</trkpt>
					<trkpt lat="43.518840" lon="4.981670">
						<ele>26</ele>
						<time>2025-04-28T17:26:45Z</time>
					</trkpt>
					<trkpt lat="43.518620" lon="4.981840">
						<ele>26</ele>
						<time>2025-04-28T17:26:50Z</time>
					</trkpt>
					<trkpt lat="43.518270" lon="4.982180">
						<ele>26</ele>
						<time>2025-04-28T17:26:57Z</time>
					</trkpt>
					<trkpt lat="43.517650" lon="4.982880">
						<ele>24</ele>
						<time>2025-04-28T17:27:11Z</time>
					</trkpt>
					<trkpt lat="43.517530" lon="4.982950">
						<ele>23</ele>
						<time>2025-04-28T17:27:14Z</time>
					</trkpt>
					<trkpt lat="43.517410" lon="4.982950">
						<ele>23</ele>
						<time>2025-04-28T17:27:16Z</time>
					</trkpt>
					<trkpt lat="43.517370" lon="4.982970">
						<ele>23</ele>
						<time>2025-04-28T17:27:17Z</time>
					</trkpt>
					<trkpt lat="43.517340" lon="4.983020">
						<ele>23</ele>
						<time>2025-04-28T17:27:17Z</time>
					</trkpt>
					<trkpt lat="43.517340" lon="4.983080">
						<ele>23</ele>
						<time>2025-04-28T17:27:18Z</time>
					</trkpt>
					<trkpt lat="43.517250" lon="4.983240">
						<ele>23</ele>
						<time>2025-04-28T17:27:21Z</time>
					</trkpt>
					<trkpt lat="43.517170" lon="4.983330">
						<ele>23</ele>
						<time>2025-04-28T17:27:23Z</time>
					</trkpt>
					<trkpt lat="43.516160" lon="4.984420">
						<ele>16</ele>
						<time>2025-04-28T17:27:45Z</time>
					</trkpt>
					<trkpt lat="43.516100" lon="4.984460">
						<ele>15</ele>
						<time>2025-04-28T17:27:47Z</time>
					</trkpt>
					<trkpt lat="43.516010" lon="4.984570">
						<ele>14</ele>
						<time>2025-04-28T17:27:49Z</time>
					</trkpt>
					<trkpt lat="43.516010" lon="4.984520">
						<ele>15</ele>
						<time>2025-04-28T17:27:49Z</time>
					</trkpt>
					<trkpt lat="43.515980" lon="4.984490">
						<ele>15</ele>
						<time>2025-04-28T17:27:50Z</time>
					</trkpt>
					<trkpt lat="43.515950" lon="4.984450">
						<ele>15</ele>
						<time>2025-04-28T17:27:51Z</time>
					</trkpt>
					<trkpt lat="43.515770" lon="4.984360">
						<ele>15</ele>
						<time>2025-04-28T17:27:54Z</time>
					</trkpt>
					<trkpt lat="43.515180" lon="4.983960">
						<ele>16</ele>
						<time>2025-04-28T17:28:06Z</time>
					</trkpt>
					<trkpt lat="43.514890" lon="4.983800">
						<ele>17</ele>
						<time>2025-04-28T17:28:12Z</time>
					</trkpt>
					<trkpt lat="43.514060" lon="4.983250">
						<ele>19</ele>
						<time>2025-04-28T17:28:28Z</time>
					</trkpt>
					<trkpt lat="43.513360" lon="4.982970">
						<ele>18</ele>
						<time>2025-04-28T17:28:41Z</time>
					</trkpt>
					<trkpt lat="43.513100" lon="4.982870">
						<ele>20</ele>
						<time>2025-04-28T17:28:46Z</time>
					</trkpt>
					<trkpt lat="43.512830" lon="4.982710">
						<ele>22</ele>
						<time>2025-04-28T17:28:51Z</time>
					</trkpt>
					<trkpt lat="43.511920" lon="4.982000">
						<ele>24</ele>
						<time>2025-04-28T17:29:10Z</time>
					</trkpt>
					<trkpt lat="43.511860" lon="4.981930">
						<ele>24</ele>
						<time>2025-04-28T17:29:11Z</time>
					</trkpt>
					<trkpt lat="43.511860" lon="4.981880">
						<ele>24</ele>
						<time>2025-04-28T17:29:12Z</time>
					</trkpt>
					<trkpt lat="43.511830" lon="4.981840">
						<ele>24</ele>
						<time>2025-04-28T17:29:12Z</time>
					</trkpt>
					<trkpt lat="43.511790" lon="4.981830">
						<ele>24</ele>
						<time>2025-04-28T17:29:13Z</time>
					</trkpt>
					<trkpt lat="43.511760" lon="4.981860">
						<ele>24</ele>
						<time>2025-04-28T17:29:14Z</time>
					</trkpt>
					<trkpt lat="43.511210" lon="4.981600">
						<ele>25</ele>
						<time>2025-04-28T17:29:24Z</time>
					</trkpt>
					<trkpt lat="43.510890" lon="4.981490">
						<ele>25</ele>
						<time>2025-04-28T17:29:30Z</time>
					</trkpt>
					<trkpt lat="43.510350" lon="4.981450">
						<ele>24</ele>
						<time>2025-04-28T17:29:40Z</time>
					</trkpt>
					<trkpt lat="43.509990" lon="4.981500">
						<ele>23</ele>
						<time>2025-04-28T17:29:46Z</time>
					</trkpt>
					<trkpt lat="43.509880" lon="4.981470">
						<ele>23</ele>
						<time>2025-04-28T17:29:48Z</time>
					</trkpt>
					<trkpt lat="43.509840" lon="4.981420">
						<ele>23</ele>
						<time>2025-04-28T17:29:49Z</time>
					</trkpt>
					<trkpt lat="43.509790" lon="4.981420">
						<ele>22</ele>
						<time>2025-04-28T17:29:50Z</time>
					</trkpt>
					<trkpt lat="43.509740" lon="4.981450">
						<ele>22</ele>
						<time>2025-04-28T17:29:51Z</time>
					</trkpt>
					<trkpt lat="43.509720" lon="4.981510">
						<ele>22</ele>
						<time>2025-04-28T17:29:52Z</time>
					</trkpt>
					<trkpt lat="43.509110" lon="4.981770">
						<ele>20</ele>
						<time>2025-04-28T17:30:03Z</time>
					</trkpt>
					<trkpt lat="43.508930" lon="4.981890">
						<ele>20</ele>
						<time>2025-04-28T17:30:07Z</time>
					</trkpt>
					<trkpt lat="43.507700" lon="4.982890">
						<ele>19</ele>
						<time>2025-04-28T17:30:32Z</time>
					</trkpt>
					<trkpt lat="43.507610" lon="4.982930">
						<ele>19</ele>
						<time>2025-04-28T17:30:34Z</time>
					</trkpt>
					<trkpt lat="43.507370" lon="4.983100">
						<ele>19</ele>
						<time>2025-04-28T17:30:38Z</time>
					</trkpt>
					<trkpt lat="43.507280" lon="4.983080">
						<ele>19</ele>
						<time>2025-04-28T17:30:40Z</time>
					</trkpt>
					<trkpt lat="43.507240" lon="4.983140">
						<ele>19</ele>
						<time>2025-04-28T17:30:41Z</time>
					</trkpt>
					<trkpt lat="43.507170" lon="4.983270">
						<ele>19</ele>
						<time>2025-04-28T17:30:43Z</time>
					</trkpt>
					<trkpt lat="43.507130" lon="4.983310">
						<ele>19</ele>
						<time>2025-04-28T17:30:44Z</time>
					</trkpt>
					<trkpt lat="43.506030" lon="4.984190">
						<ele>17</ele>
						<time>2025-04-28T17:31:07Z</time>
					</trkpt>
					<trkpt lat="43.505900" lon="4.984230">
						<ele>17</ele>
						<time>2025-04-28T17:31:09Z</time>
					</trkpt>
					<trkpt lat="43.505850" lon="4.984200">
						<ele>17</ele>
						<time>2025-04-28T17:31:10Z</time>
					</trkpt>
					<trkpt lat="43.505790" lon="4.984200">
						<ele>17</ele>
						<time>2025-04-28T17:31:11Z</time>
					</trkpt>
					<trkpt lat="43.505750" lon="4.984220">
						<ele>17</ele>
						<time>2025-04-28T17:31:12Z</time>
					</trkpt>
					<trkpt lat="43.505720" lon="4.984250">
						<ele>17</ele>
						<time>2025-04-28T17:31:13Z</time>
					</trkpt>
					<trkpt lat="43.505670" lon="4.984350">
						<ele>17</ele>
						<time>2025-04-28T17:31:14Z</time>
					</trkpt>
					<trkpt lat="43.505670" lon="4.984410">
						<ele>17</ele>
						<time>2025-04-28T17:31:15Z</time>
					</trkpt>
					<trkpt lat="43.505590" lon="4.984550">
						<ele>17</ele>
						<time>2025-04-28T17:31:17Z</time>
					</trkpt>
					<trkpt lat="43.505100" lon="4.984910">
						<ele>17</ele>
						<time>2025-04-28T17:31:27Z</time>
					</trkpt>
					<trkpt lat="43.504420" lon="4.985320">
						<ele>19</ele>
						<time>2025-04-28T17:31:40Z</time>
					</trkpt>
					<trkpt lat="43.503390" lon="4.985610">
						<ele>19</ele>
						<time>2025-04-28T17:31:59Z</time>
					</trkpt>
					<trkpt lat="43.503100" lon="4.985670">
						<ele>19</ele>
						<time>2025-04-28T17:32:04Z</time>
					</trkpt>
					<trkpt lat="43.501060" lon="4.985660">
						<ele>22</ele>
						<time>2025-04-28T17:32:40Z</time>
					</trkpt>
					<trkpt lat="43.500780" lon="4.985690">
						<ele>23</ele>
						<time>2025-04-28T17:32:45Z</time>
					</trkpt>
					<trkpt lat="43.498970" lon="4.986070">
						<ele>24</ele>
						<time>2025-04-28T17:33:18Z</time>
					</trkpt>
					<trkpt lat="43.498730" lon="4.985970">
						<ele>24</ele>
						<time>2025-04-28T17:33:22Z</time>
					</trkpt>
					<trkpt lat="43.498630" lon="4.985890">
						<ele>24</ele>
						<time>2025-04-28T17:33:25Z</time>
					</trkpt>
					<trkpt lat="43.498570" lon="4.985880">
						<ele>25</ele>
						<time>2025-04-28T17:33:26Z</time>
					</trkpt>
					<trkpt lat="43.498490" lon="4.985900">
						<ele>25</ele>
						<time>2025-04-28T17:33:27Z</time>
					</trkpt>
					<trkpt lat="43.498460" lon="4.985910">
						<ele>25</ele>
						<time>2025-04-28T17:33:28Z</time>
					</trkpt>
					<trkpt lat="43.498360" lon="4.986000">
						<ele>26</ele>
						<time>2025-04-28T17:33:30Z</time>
					</trkpt>
					<trkpt lat="43.498330" lon="4.986080">
						<ele>26</ele>
						<time>2025-04-28T17:33:31Z</time>
					</trkpt>
					<trkpt lat="43.498300" lon="4.986220">
						<ele>26</ele>
						<time>2025-04-28T17:33:33Z</time>
					</trkpt>
					<trkpt lat="43.498300" lon="4.986290">
						<ele>27</ele>
						<time>2025-04-28T17:33:34Z</time>
					</trkpt>
					<trkpt lat="43.498320" lon="4.986360">
						<ele>27</ele>
						<time>2025-04-28T17:33:35Z</time>
					</trkpt>
					<trkpt lat="43.498370" lon="4.986490">
						<ele>27</ele>
						<time>2025-04-28T17:33:37Z</time>
					</trkpt>
					<trkpt lat="43.498430" lon="4.986550">
						<ele>27</ele>
						<time>2025-04-28T17:33:38Z</time>
					</trkpt>
					<trkpt lat="43.498500" lon="4.986580">
						<ele>27</ele>
						<time>2025-04-28T17:33:39Z</time>
					</trkpt>
					<trkpt lat="43.498570" lon="4.986590">
						<ele>27</ele>
						<time>2025-04-28T17:33:40Z</time>
					</trkpt>
					<trkpt lat="43.498740" lon="4.986740">
						<ele>27</ele>
						<time>2025-04-28T17:33:44Z</time>
					</trkpt>
					<trkpt lat="43.498830" lon="4.986880">
						<ele>27</ele>
						<time>2025-04-28T17:33:46Z</time>
					</trkpt>
					<trkpt lat="43.498900" lon="4.987060">
						<ele>27</ele>
						<time>2025-04-28T17:33:49Z</time>
					</trkpt>
					<trkpt lat="43.499060" lon="4.987560">
						<ele>29</ele>
						<time>2025-04-28T17:33:56Z</time>
					</trkpt>
					<trkpt lat="43.499160" lon="4.988230">
						<ele>30</ele>
						<time>2025-04-28T17:34:05Z</time>
					</trkpt>
					<trkpt lat="43.499180" lon="4.988700">
						<ele>30</ele>
						<time>2025-04-28T17:34:11Z</time>
					</trkpt>
					<trkpt lat="43.499160" lon="4.989320">
						<ele>31</ele>
						<time>2025-04-28T17:34:19Z</time>
					</trkpt>
					<trkpt lat="43.498970" lon="4.990740">
						<ele>32</ele>
						<time>2025-04-28T17:34:38Z</time>
					</trkpt>
					<trkpt lat="43.498960" lon="4.990890">
						<ele>33</ele>
						<time>2025-04-28T17:34:40Z</time>
					</trkpt>
					<trkpt lat="43.498980" lon="4.991150">
						<ele>33</ele>
						<time>2025-04-28T17:34:43Z</time>
					</trkpt>
					<trkpt lat="43.499060" lon="4.991480">
						<ele>34</ele>
						<time>2025-04-28T17:34:48Z</time>
					</trkpt>
					<trkpt lat="43.499190" lon="4.991750">
						<ele>34</ele>
						<time>2025-04-28T17:34:52Z</time>
					</trkpt>
					<trkpt lat="43.499260" lon="4.991870">
						<ele>34</ele>
						<time>2025-04-28T17:34:54Z</time>
					</trkpt>
					<trkpt lat="43.499490" lon="4.992140">
						<ele>34</ele>
						<time>2025-04-28T17:34:59Z</time>
					</trkpt>
					<trkpt lat="43.499670" lon="4.992260">
						<ele>33</ele>
						<time>2025-04-28T17:35:03Z</time>
					</trkpt>
					<trkpt lat="43.499890" lon="4.992360">
						<ele>32</ele>
						<time>2025-04-28T17:35:07Z</time>
					</trkpt>
					<trkpt lat="43.500970" lon="4.992660">
						<ele>29</ele>
						<time>2025-04-28T17:35:26Z</time>
					</trkpt>
					<trkpt lat="43.501190" lon="4.992740">
						<ele>29</ele>
						<time>2025-04-28T17:35:30Z</time>
					</trkpt>
					<trkpt lat="43.501180" lon="4.993420">
						<ele>31</ele>
						<time>2025-04-28T17:35:39Z</time>
					</trkpt>
					</trkseg>
				</trk>
			</gpx>